sensor_id;sensor_type;location;lat;lon;timestamp;temperature;humidity
18153;DHT22;9202;51.578;7.734;2022-09-24T00:01:10;13.20;99.90
18153;DHT22;9202;51.578;7.734;2022-09-24T00:03:23;13.10;99.90
18153;DHT22;9202;51.578;7.734;2022-09-24T00:05:38;13.00;99.90
18153;DHT22;9202;51.578;7.734;2022-09-24T00:07:41;13.00;99.90
18153;DHT22;9202;51.578;7.734;2022-09-24T00:09:44;13.10;99.90
18153;DHT22;9202;51.578;7.734;2022-09-24T00:11:47;13.00;99.90
18153;DHT22;9202;51.578;7.734;2022-09-24T00:13:57;13.00;99.90
18153;DHT22;9202;51.578;7.734;2022-09-24T00:16:16;13.00;99.90
18153;DHT22;9202;51.578;7.734;2022-09-24T00:18:19;13.00;99.90
18153;DHT22;9202;51.578;7.734;2022-09-24T00:20:22;13.00;99.90
18153;DHT22;9202;51.578;7.734;2022-09-24T00:22:24;13.00;99.90
18153;DHT22;9202;51.578;7.734;2022-09-24T00:24:27;12.90;99.90
18153;DHT22;9202;51.578;7.734;2022-09-24T00:26:47;12.90;99.90
18153;DHT22;9202;51.578;7.734;2022-09-24T00:28:53;12.90;99.90
18153;DHT22;9202;51.578;7.734;2022-09-24T00:30:55;12.90;99.90
18153;DHT22;9202;51.578;7.734;2022-09-24T00:32:59;13.00;99.90
18153;DHT22;9202;51.578;7.734;2022-09-24T00:35:01;13.00;99.90
18153;DHT22;9202;51.578;7.734;2022-09-24T00:37:04;13.00;99.90
18153;DHT22;9202;51.578;7.734;2022-09-24T00:39:06;13.00;99.90
18153;DHT22;9202;51.578;7.734;2022-09-24T00:41:09;13.00;99.90
18153;DHT22;9202;51.578;7.734;2022-09-24T00:43:21;13.00;99.90
18153;DHT22;9202;51.578;7.734;2022-09-24T00:45:24;12.90;99.90
18153;DHT22;9202;51.578;7.734;2022-09-24T00:47:29;12.90;99.90
18153;DHT22;9202;51.578;7.734;2022-09-24T00:49:32;12.90;99.90
18153;DHT22;9202;51.578;7.734;2022-09-24T00:51:35;12.90;99.90
18153;DHT22;9202;51.578;7.734;2022-09-24T00:53:37;12.90;99.90
18153;DHT22;9202;51.578;7.734;2022-09-24T00:55:40;12.90;99.90
18153;DHT22;9202;51.578;7.734;2022-09-24T00:57:44;13.00;99.90
18153;DHT22;9202;51.578;7.734;2022-09-24T00:59:47;13.00;99.90
18153;DHT22;9202;51.578;7.734;2022-09-24T01:01:50;12.90;99.90
18153;DHT22;9202;51.578;7.734;2022-09-24T01:03:54;12.90;99.90
18153;DHT22;9202;51.578;7.734;2022-09-24T01:05:58;12.80;99.90
18153;DHT22;9202;51.578;7.734;2022-09-24T01:08:01;12.90;99.90
18153;DHT22;9202;51.578;7.734;2022-09-24T01:10:04;12.90;99.90
18153;DHT22;9202;51.578;7.734;2022-09-24T01:12:08;12.90;99.90
18153;DHT22;9202;51.578;7.734;2022-09-24T01:14:23;12.90;99.90
18153;DHT22;9202;51.578;7.734;2022-09-24T01:16:29;12.80;99.90
18153;DHT22;9202;51.578;7.734;2022-09-24T01:20:59;12.90;99.90
18153;DHT22;9202;51.578;7.734;2022-09-24T01:23:25;12.90;99.90
18153;DHT22;9202;51.578;7.734;2022-09-24T01:25:30;12.80;99.90
18153;DHT22;9202;51.578;7.734;2022-09-24T01:27:41;12.80;99.90
18153;DHT22;9202;51.578;7.734;2022-09-24T01:29:46;12.90;99.90
18153;DHT22;9202;51.578;7.734;2022-09-24T01:31:51;12.90;99.90
18153;DHT22;9202;51.578;7.734;2022-09-24T01:33:54;13.00;99.90
18153;DHT22;9202;51.578;7.734;2022-09-24T01:35:58;12.90;99.90
18153;DHT22;9202;51.578;7.734;2022-09-24T01:38:05;13.00;99.90
18153;DHT22;9202;51.578;7.734;2022-09-24T01:40:09;13.00;99.90
18153;DHT22;9202;51.578;7.734;2022-09-24T01:42:12;13.00;99.90
18153;DHT22;9202;51.578;7.734;2022-09-24T01:44:15;13.00;99.90
18153;DHT22;9202;51.578;7.734;2022-09-24T01:46:19;13.00;99.90
18153;DHT22;9202;51.578;7.734;2022-09-24T01:48:23;13.10;99.90
18153;DHT22;9202;51.578;7.734;2022-09-24T01:50:26;13.10;99.90
18153;DHT22;9202;51.578;7.734;2022-09-24T01:52:30;13.10;99.90
18153;DHT22;9202;51.578;7.734;2022-09-24T01:54:36;13.10;99.90
18153;DHT22;9202;51.578;7.734;2022-09-24T01:56:43;13.00;99.90
18153;DHT22;9202;51.578;7.734;2022-09-24T01:58:48;13.00;99.90
18153;DHT22;9202;51.578;7.734;2022-09-24T02:00:58;13.10;99.90
18153;DHT22;9202;51.578;7.734;2022-09-24T02:03:00;13.10;99.90
18153;DHT22;9202;51.578;7.734;2022-09-24T02:05:05;13.10;99.90
18153;DHT22;9202;51.578;7.734;2022-09-24T02:07:10;13.10;99.90
18153;DHT22;9202;51.578;7.734;2022-09-24T02:09:30;13.00;99.90
18153;DHT22;9202;51.578;7.734;2022-09-24T02:11:33;13.00;99.90
18153;DHT22;9202;51.578;7.734;2022-09-24T02:13:38;13.10;99.90
18153;DHT22;9202;51.578;7.734;2022-09-24T02:15:43;13.10;99.90
18153;DHT22;9202;51.578;7.734;2022-09-24T02:17:50;13.10;99.90
18153;DHT22;9202;51.578;7.734;2022-09-24T02:19:54;13.20;99.90
18153;DHT22;9202;51.578;7.734;2022-09-24T02:21:57;13.10;99.90
18153;DHT22;9202;51.578;7.734;2022-09-24T02:24:03;13.10;99.90
18153;DHT22;9202;51.578;7.734;2022-09-24T02:26:07;13.10;99.90
18153;DHT22;9202;51.578;7.734;2022-09-24T02:28:12;13.10;99.90
18153;DHT22;9202;51.578;7.734;2022-09-24T02:30:16;13.10;99.90
18153;DHT22;9202;51.578;7.734;2022-09-24T02:32:19;13.00;99.90
18153;DHT22;9202;51.578;7.734;2022-09-24T02:34:26;13.10;99.90
18153;DHT22;9202;51.578;7.734;2022-09-24T02:36:30;13.10;99.90
18153;DHT22;9202;51.578;7.734;2022-09-24T02:40:50;13.20;99.90
18153;DHT22;9202;51.578;7.734;2022-09-24T02:42:54;13.20;99.90
18153;DHT22;9202;51.578;7.734;2022-09-24T02:44:56;13.20;99.90
18153;DHT22;9202;51.578;7.734;2022-09-24T02:47:00;13.20;99.90
18153;DHT22;9202;51.578;7.734;2022-09-24T02:49:03;13.30;99.90
18153;DHT22;9202;51.578;7.734;2022-09-24T02:51:05;13.30;99.90
18153;DHT22;9202;51.578;7.734;2022-09-24T02:53:08;13.30;99.90
18153;DHT22;9202;51.578;7.734;2022-09-24T02:55:11;13.40;99.90
18153;DHT22;9202;51.578;7.734;2022-09-24T02:57:13;13.30;99.90
18153;DHT22;9202;51.578;7.734;2022-09-24T02:59:16;13.40;99.90
18153;DHT22;9202;51.578;7.734;2022-09-24T03:01:19;13.40;99.90
18153;DHT22;9202;51.578;7.734;2022-09-24T03:03:23;13.40;99.90
18153;DHT22;9202;51.578;7.734;2022-09-24T03:05:26;13.40;99.90
18153;DHT22;9202;51.578;7.734;2022-09-24T03:07:28;13.40;99.90
18153;DHT22;9202;51.578;7.734;2022-09-24T03:09:31;13.40;99.90
18153;DHT22;9202;51.578;7.734;2022-09-24T03:11:33;13.40;99.90
18153;DHT22;9202;51.578;7.734;2022-09-24T03:13:36;13.50;99.90
18153;DHT22;9202;51.578;7.734;2022-09-24T03:15:38;13.40;99.90
18153;DHT22;9202;51.578;7.734;2022-09-24T03:17:41;13.40;99.90
18153;DHT22;9202;51.578;7.734;2022-09-24T03:19:44;13.40;99.90
18153;DHT22;9202;51.578;7.734;2022-09-24T03:21:46;13.50;99.90
18153;DHT22;9202;51.578;7.734;2022-09-24T03:23:49;13.50;99.90
18153;DHT22;9202;51.578;7.734;2022-09-24T03:25:52;13.50;99.90
18153;DHT22;9202;51.578;7.734;2022-09-24T03:27:55;13.50;99.90
18153;DHT22;9202;51.578;7.734;2022-09-24T03:29:57;13.50;99.90
18153;DHT22;9202;51.578;7.734;2022-09-24T03:32:18;13.50;99.90
18153;DHT22;9202;51.578;7.734;2022-09-24T03:34:21;13.50;99.90
18153;DHT22;9202;51.578;7.734;2022-09-24T03:36:24;13.50;99.90
18153;DHT22;9202;51.578;7.734;2022-09-24T03:38:27;13.50;99.90
18153;DHT22;9202;51.578;7.734;2022-09-24T03:40:29;13.40;99.90
18153;DHT22;9202;51.578;7.734;2022-09-24T03:42:32;13.30;99.90
18153;DHT22;9202;51.578;7.734;2022-09-24T03:44:35;13.40;99.90
18153;DHT22;9202;51.578;7.734;2022-09-24T03:46:38;13.40;99.90
18153;DHT22;9202;51.578;7.734;2022-09-24T03:51:01;13.40;99.90
18153;DHT22;9202;51.578;7.734;2022-09-24T03:53:02;13.50;99.90
18153;DHT22;9202;51.578;7.734;2022-09-24T03:55:05;13.50;99.90
18153;DHT22;9202;51.578;7.734;2022-09-24T03:57:08;13.50;99.90
18153;DHT22;9202;51.578;7.734;2022-09-24T03:59:10;13.50;99.90
18153;DHT22;9202;51.578;7.734;2022-09-24T04:01:14;13.50;99.90
18153;DHT22;9202;51.578;7.734;2022-09-24T04:03:19;13.50;99.90
18153;DHT22;9202;51.578;7.734;2022-09-24T04:05:22;13.50;99.90
18153;DHT22;9202;51.578;7.734;2022-09-24T04:07:25;13.50;99.90
18153;DHT22;9202;51.578;7.734;2022-09-24T04:09:27;13.50;99.90
18153;DHT22;9202;51.578;7.734;2022-09-24T04:11:30;13.50;99.90
18153;DHT22;9202;51.578;7.734;2022-09-24T04:13:34;13.50;99.90
18153;DHT22;9202;51.578;7.734;2022-09-24T04:15:37;13.30;99.90
18153;DHT22;9202;51.578;7.734;2022-09-24T04:17:39;13.30;99.90
18153;DHT22;9202;51.578;7.734;2022-09-24T04:19:42;13.40;99.90
18153;DHT22;9202;51.578;7.734;2022-09-24T04:21:45;13.30;99.90
18153;DHT22;9202;51.578;7.734;2022-09-24T04:23:47;13.10;99.90
18153;DHT22;9202;51.578;7.734;2022-09-24T04:25:50;13.00;99.90
18153;DHT22;9202;51.578;7.734;2022-09-24T04:27:53;13.10;99.90
18153;DHT22;9202;51.578;7.734;2022-09-24T04:29:55;13.10;99.90
18153;DHT22;9202;51.578;7.734;2022-09-24T04:31:58;13.10;99.90
18153;DHT22;9202;51.578;7.734;2022-09-24T04:34:00;13.10;99.90
18153;DHT22;9202;51.578;7.734;2022-09-24T04:36:03;13.10;99.90
18153;DHT22;9202;51.578;7.734;2022-09-24T04:38:06;13.10;99.90
18153;DHT22;9202;51.578;7.734;2022-09-24T04:40:09;13.10;99.90
18153;DHT22;9202;51.578;7.734;2022-09-24T04:42:15;13.10;99.90
18153;DHT22;9202;51.578;7.734;2022-09-24T04:44:18;13.10;99.90
18153;DHT22;9202;51.578;7.734;2022-09-24T04:46:20;13.10;99.90
18153;DHT22;9202;51.578;7.734;2022-09-24T04:48:23;12.90;99.90
18153;DHT22;9202;51.578;7.734;2022-09-24T04:50:26;12.90;99.90
18153;DHT22;9202;51.578;7.734;2022-09-24T04:52:30;12.70;99.90
18153;DHT22;9202;51.578;7.734;2022-09-24T04:54:34;12.70;99.90
18153;DHT22;9202;51.578;7.734;2022-09-24T04:56:36;12.70;99.90
18153;DHT22;9202;51.578;7.734;2022-09-24T04:58:39;12.60;99.90
18153;DHT22;9202;51.578;7.734;2022-09-24T05:00:42;12.50;99.90
18153;DHT22;9202;51.578;7.734;2022-09-24T05:02:45;12.50;99.90
18153;DHT22;9202;51.578;7.734;2022-09-24T05:04:48;12.60;99.90
18153;DHT22;9202;51.578;7.734;2022-09-24T05:06:50;12.60;99.90
18153;DHT22;9202;51.578;7.734;2022-09-24T05:08:53;12.70;99.90
18153;DHT22;9202;51.578;7.734;2022-09-24T05:10:56;12.80;99.90
18153;DHT22;9202;51.578;7.734;2022-09-24T05:12:58;12.80;99.90
18153;DHT22;9202;51.578;7.734;2022-09-24T05:15:01;12.90;99.90
18153;DHT22;9202;51.578;7.734;2022-09-24T05:17:04;12.90;99.90
18153;DHT22;9202;51.578;7.734;2022-09-24T05:19:06;13.00;99.90
18153;DHT22;9202;51.578;7.734;2022-09-24T05:21:09;12.90;99.90
18153;DHT22;9202;51.578;7.734;2022-09-24T05:23:11;13.00;99.90
18153;DHT22;9202;51.578;7.734;2022-09-24T05:25:14;13.00;99.90
18153;DHT22;9202;51.578;7.734;2022-09-24T05:27:17;13.10;99.90
18153;DHT22;9202;51.578;7.734;2022-09-24T05:29:20;13.00;99.90
18153;DHT22;9202;51.578;7.734;2022-09-24T05:31:23;12.90;99.90
18153;DHT22;9202;51.578;7.734;2022-09-24T05:33:25;12.90;99.90
18153;DHT22;9202;51.578;7.734;2022-09-24T05:35:28;12.90;99.90
18153;DHT22;9202;51.578;7.734;2022-09-24T05:37:31;12.90;99.90
18153;DHT22;9202;51.578;7.734;2022-09-24T05:39:33;12.90;99.90
18153;DHT22;9202;51.578;7.734;2022-09-24T05:41:36;12.90;99.90
18153;DHT22;9202;51.578;7.734;2022-09-24T05:43:38;12.90;99.90
18153;DHT22;9202;51.578;7.734;2022-09-24T05:45:42;12.90;99.90
18153;DHT22;9202;51.578;7.734;2022-09-24T05:47:45;12.90;99.90
18153;DHT22;9202;51.578;7.734;2022-09-24T05:52:03;12.90;99.90
18153;DHT22;9202;51.578;7.734;2022-09-24T05:54:05;12.80;99.90
18153;DHT22;9202;51.578;7.734;2022-09-24T05:56:08;12.80;99.90
18153;DHT22;9202;51.578;7.734;2022-09-24T05:58:11;12.80;99.90
18153;DHT22;9202;51.578;7.734;2022-09-24T06:00:14;12.60;99.90
18153;DHT22;9202;51.578;7.734;2022-09-24T06:02:17;12.50;99.90
18153;DHT22;9202;51.578;7.734;2022-09-24T06:04:19;12.50;99.90
18153;DHT22;9202;51.578;7.734;2022-09-24T06:06:22;12.60;99.90
18153;DHT22;9202;51.578;7.734;2022-09-24T06:08:25;12.70;99.90
18153;DHT22;9202;51.578;7.734;2022-09-24T06:10:27;12.60;99.90
18153;DHT22;9202;51.578;7.734;2022-09-24T06:12:30;12.70;99.90
18153;DHT22;9202;51.578;7.734;2022-09-24T06:14:35;12.80;99.90
18153;DHT22;9202;51.578;7.734;2022-09-24T06:16:38;12.80;99.90
18153;DHT22;9202;51.578;7.734;2022-09-24T06:18:41;12.90;99.90
18153;DHT22;9202;51.578;7.734;2022-09-24T06:20:45;13.00;99.90
18153;DHT22;9202;51.578;7.734;2022-09-24T06:22:48;13.00;99.90
18153;DHT22;9202;51.578;7.734;2022-09-24T06:24:51;13.00;99.90
18153;DHT22;9202;51.578;7.734;2022-09-24T06:26:53;13.00;99.90
18153;DHT22;9202;51.578;7.734;2022-09-24T06:28:56;12.80;99.90
18153;DHT22;9202;51.578;7.734;2022-09-24T06:31:00;12.70;99.90
18153;DHT22;9202;51.578;7.734;2022-09-24T06:33:04;12.80;99.90
18153;DHT22;9202;51.578;7.734;2022-09-24T06:35:07;12.70;99.90
18153;DHT22;9202;51.578;7.734;2022-09-24T06:37:10;12.70;99.90
18153;DHT22;9202;51.578;7.734;2022-09-24T06:39:12;12.60;99.90
18153;DHT22;9202;51.578;7.734;2022-09-24T06:41:15;12.60;99.90
18153;DHT22;9202;51.578;7.734;2022-09-24T06:43:18;12.60;99.90
18153;DHT22;9202;51.578;7.734;2022-09-24T06:45:20;12.70;99.90
18153;DHT22;9202;51.578;7.734;2022-09-24T06:47:23;12.80;99.90
18153;DHT22;9202;51.578;7.734;2022-09-24T06:49:26;12.80;99.90
18153;DHT22;9202;51.578;7.734;2022-09-24T06:51:32;12.80;99.90
18153;DHT22;9202;51.578;7.734;2022-09-24T06:53:34;12.90;99.90
18153;DHT22;9202;51.578;7.734;2022-09-24T06:55:37;12.90;99.90
18153;DHT22;9202;51.578;7.734;2022-09-24T06:57:40;12.90;99.90
18153;DHT22;9202;51.578;7.734;2022-09-24T06:59:42;13.00;99.90
18153;DHT22;9202;51.578;7.734;2022-09-24T07:01:45;12.90;99.90
18153;DHT22;9202;51.578;7.734;2022-09-24T07:03:48;12.90;99.90
18153;DHT22;9202;51.578;7.734;2022-09-24T07:05:50;13.00;99.90
18153;DHT22;9202;51.578;7.734;2022-09-24T07:07:53;13.00;99.90
18153;DHT22;9202;51.578;7.734;2022-09-24T07:09:55;13.00;99.90
18153;DHT22;9202;51.578;7.734;2022-09-24T07:11:58;13.00;99.90
18153;DHT22;9202;51.578;7.734;2022-09-24T07:14:02;13.00;99.90
18153;DHT22;9202;51.578;7.734;2022-09-24T07:16:05;13.10;99.90
18153;DHT22;9202;51.578;7.734;2022-09-24T07:18:08;13.20;99.90
18153;DHT22;9202;51.578;7.734;2022-09-24T07:20:10;13.20;99.90
18153;DHT22;9202;51.578;7.734;2022-09-24T07:22:13;13.20;99.90
18153;DHT22;9202;51.578;7.734;2022-09-24T07:24:15;13.30;99.90
18153;DHT22;9202;51.578;7.734;2022-09-24T07:26:18;13.30;99.90
18153;DHT22;9202;51.578;7.734;2022-09-24T07:28:21;13.40;99.90
18153;DHT22;9202;51.578;7.734;2022-09-24T07:30:23;13.50;99.90
18153;DHT22;9202;51.578;7.734;2022-09-24T07:32:26;13.50;99.90
18153;DHT22;9202;51.578;7.734;2022-09-24T07:34:30;13.50;99.90
18153;DHT22;9202;51.578;7.734;2022-09-24T07:36:33;13.60;99.90
18153;DHT22;9202;51.578;7.734;2022-09-24T07:38:37;13.60;99.90
18153;DHT22;9202;51.578;7.734;2022-09-24T07:40:44;13.60;99.90
18153;DHT22;9202;51.578;7.734;2022-09-24T07:42:46;13.70;99.90
18153;DHT22;9202;51.578;7.734;2022-09-24T07:44:49;13.80;99.90
18153;DHT22;9202;51.578;7.734;2022-09-24T07:46:52;14.00;99.90
18153;DHT22;9202;51.578;7.734;2022-09-24T07:48:54;14.10;99.90
18153;DHT22;9202;51.578;7.734;2022-09-24T07:50:57;14.10;99.90
18153;DHT22;9202;51.578;7.734;2022-09-24T07:52:59;14.20;99.90
18153;DHT22;9202;51.578;7.734;2022-09-24T07:55:03;14.10;99.90
18153;DHT22;9202;51.578;7.734;2022-09-24T07:57:11;14.20;99.90
18153;DHT22;9202;51.578;7.734;2022-09-24T07:59:15;14.20;99.90
18153;DHT22;9202;51.578;7.734;2022-09-24T08:03:33;14.30;99.90
18153;DHT22;9202;51.578;7.734;2022-09-24T08:05:36;14.40;99.90
18153;DHT22;9202;51.578;7.734;2022-09-24T08:07:41;14.50;99.90
18153;DHT22;9202;51.578;7.734;2022-09-24T08:09:44;14.60;99.90
18153;DHT22;9202;51.578;7.734;2022-09-24T08:11:48;14.60;99.90
18153;DHT22;9202;51.578;7.734;2022-09-24T08:13:51;14.70;99.90
18153;DHT22;9202;51.578;7.734;2022-09-24T08:15:55;14.70;99.90
18153;DHT22;9202;51.578;7.734;2022-09-24T08:18:00;14.80;99.90
18153;DHT22;9202;51.578;7.734;2022-09-24T08:20:03;14.80;99.90
18153;DHT22;9202;51.578;7.734;2022-09-24T08:22:06;14.90;99.90
18153;DHT22;9202;51.578;7.734;2022-09-24T08:24:09;14.90;99.90
18153;DHT22;9202;51.578;7.734;2022-09-24T08:26:12;14.90;99.90
18153;DHT22;9202;51.578;7.734;2022-09-24T08:28:14;15.10;99.90
18153;DHT22;9202;51.578;7.734;2022-09-24T08:30:17;15.20;99.90
18153;DHT22;9202;51.578;7.734;2022-09-24T08:32:21;15.20;99.90
18153;DHT22;9202;51.578;7.734;2022-09-24T08:34:23;15.20;99.90
18153;DHT22;9202;51.578;7.734;2022-09-24T08:36:27;15.20;99.90
18153;DHT22;9202;51.578;7.734;2022-09-24T08:38:29;15.30;99.90
18153;DHT22;9202;51.578;7.734;2022-09-24T08:40:35;15.30;99.90
18153;DHT22;9202;51.578;7.734;2022-09-24T08:42:39;15.50;99.90
18153;DHT22;9202;51.578;7.734;2022-09-24T08:44:42;15.40;99.90
18153;DHT22;9202;51.578;7.734;2022-09-24T08:47:03;15.40;99.90
18153;DHT22;9202;51.578;7.734;2022-09-24T08:49:26;15.40;99.90
18153;DHT22;9202;51.578;7.734;2022-09-24T08:51:32;15.50;99.90
18153;DHT22;9202;51.578;7.734;2022-09-24T08:53:39;15.60;99.90
18153;DHT22;9202;51.578;7.734;2022-09-24T08:55:44;15.60;99.90
18153;DHT22;9202;51.578;7.734;2022-09-24T08:57:49;15.70;99.90
18153;DHT22;9202;51.578;7.734;2022-09-24T08:59:53;15.70;99.90
18153;DHT22;9202;51.578;7.734;2022-09-24T09:02:00;15.80;99.90
18153;DHT22;9202;51.578;7.734;2022-09-24T09:04:03;15.90;99.90
18153;DHT22;9202;51.578;7.734;2022-09-24T09:06:10;15.90;99.90
18153;DHT22;9202;51.578;7.734;2022-09-24T09:08:15;16.00;99.90
18153;DHT22;9202;51.578;7.734;2022-09-24T09:10:20;15.90;99.90
18153;DHT22;9202;51.578;7.734;2022-09-24T09:12:29;15.90;99.90
18153;DHT22;9202;51.578;7.734;2022-09-24T09:14:34;16.00;99.90
18153;DHT22;9202;51.578;7.734;2022-09-24T09:16:42;15.90;99.90
18153;DHT22;9202;51.578;7.734;2022-09-24T09:18:45;16.00;99.90
18153;DHT22;9202;51.578;7.734;2022-09-24T09:20:49;16.00;99.90
18153;DHT22;9202;51.578;7.734;2022-09-24T09:22:52;16.00;99.90
18153;DHT22;9202;51.578;7.734;2022-09-24T09:24:58;16.10;99.90
18153;DHT22;9202;51.578;7.734;2022-09-24T09:29:41;16.20;99.90
18153;DHT22;9202;51.578;7.734;2022-09-24T09:32:07;16.10;99.90
18153;DHT22;9202;51.578;7.734;2022-09-24T09:34:33;16.00;99.90
18153;DHT22;9202;51.578;7.734;2022-09-24T09:36:42;16.00;99.90
18153;DHT22;9202;51.578;7.734;2022-09-24T09:38:47;16.10;99.90
18153;DHT22;9202;51.578;7.734;2022-09-24T09:40:52;16.10;99.90
18153;DHT22;9202;51.578;7.734;2022-09-24T09:42:58;16.10;99.90
18153;DHT22;9202;51.578;7.734;2022-09-24T09:45:02;16.20;99.90
18153;DHT22;9202;51.578;7.734;2022-09-24T09:47:11;16.30;99.90
18153;DHT22;9202;51.578;7.734;2022-09-24T09:49:16;16.10;99.90
18153;DHT22;9202;51.578;7.734;2022-09-24T09:51:19;16.20;99.90
18153;DHT22;9202;51.578;7.734;2022-09-24T09:53:25;16.20;99.90
18153;DHT22;9202;51.578;7.734;2022-09-24T09:55:28;16.30;99.90
18153;DHT22;9202;51.578;7.734;2022-09-24T09:57:32;16.30;99.90
18153;DHT22;9202;51.578;7.734;2022-09-24T09:59:36;16.20;99.90
18153;DHT22;9202;51.578;7.734;2022-09-24T10:01:40;16.20;99.90
18153;DHT22;9202;51.578;7.734;2022-09-24T10:03:46;16.20;99.90
18153;DHT22;9202;51.578;7.734;2022-09-24T10:05:54;16.30;99.90
18153;DHT22;9202;51.578;7.734;2022-09-24T10:07:57;16.30;99.90
18153;DHT22;9202;51.578;7.734;2022-09-24T10:10:01;16.40;99.90
18153;DHT22;9202;51.578;7.734;2022-09-24T10:12:11;16.40;99.90
18153;DHT22;9202;51.578;7.734;2022-09-24T10:14:15;16.50;99.90
18153;DHT22;9202;51.578;7.734;2022-09-24T10:16:18;16.50;99.90
18153;DHT22;9202;51.578;7.734;2022-09-24T10:18:25;16.40;99.90
18153;DHT22;9202;51.578;7.734;2022-09-24T10:20:28;16.30;99.90
18153;DHT22;9202;51.578;7.734;2022-09-24T10:22:32;16.30;99.90
18153;DHT22;9202;51.578;7.734;2022-09-24T10:24:34;16.40;99.90
18153;DHT22;9202;51.578;7.734;2022-09-24T10:26:38;16.30;99.90
18153;DHT22;9202;51.578;7.734;2022-09-24T10:28:45;16.30;99.90
18153;DHT22;9202;51.578;7.734;2022-09-24T10:31:09;16.40;99.90
18153;DHT22;9202;51.578;7.734;2022-09-24T10:33:11;16.50;99.90
18153;DHT22;9202;51.578;7.734;2022-09-24T10:35:22;16.60;99.90
18153;DHT22;9202;51.578;7.734;2022-09-24T10:37:25;16.50;99.90
18153;DHT22;9202;51.578;7.734;2022-09-24T10:39:29;16.50;99.90
18153;DHT22;9202;51.578;7.734;2022-09-24T10:41:31;16.50;99.90
18153;DHT22;9202;51.578;7.734;2022-09-24T10:43:34;16.70;99.90
18153;DHT22;9202;51.578;7.734;2022-09-24T10:45:41;16.70;99.90
18153;DHT22;9202;51.578;7.734;2022-09-24T10:47:45;16.70;99.90
18153;DHT22;9202;51.578;7.734;2022-09-24T10:49:53;16.70;99.90
18153;DHT22;9202;51.578;7.734;2022-09-24T10:51:57;16.70;99.90
18153;DHT22;9202;51.578;7.734;2022-09-24T10:54:08;16.70;99.90
18153;DHT22;9202;51.578;7.734;2022-09-24T10:56:13;16.80;99.90
18153;DHT22;9202;51.578;7.734;2022-09-24T10:58:23;16.80;99.90
18153;DHT22;9202;51.578;7.734;2022-09-24T11:00:28;16.80;99.90
18153;DHT22;9202;51.578;7.734;2022-09-24T11:02:41;16.80;99.90
18153;DHT22;9202;51.578;7.734;2022-09-24T11:04:46;16.80;99.90
18153;DHT22;9202;51.578;7.734;2022-09-24T11:06:56;16.80;99.90
18153;DHT22;9202;51.578;7.734;2022-09-24T11:09:02;16.80;99.90
18153;DHT22;9202;51.578;7.734;2022-09-24T11:11:08;16.70;99.90
18153;DHT22;9202;51.578;7.734;2022-09-24T11:13:12;16.80;99.90
18153;DHT22;9202;51.578;7.734;2022-09-24T11:15:22;16.70;99.90
18153;DHT22;9202;51.578;7.734;2022-09-24T11:17:28;16.70;99.90
18153;DHT22;9202;51.578;7.734;2022-09-24T11:19:37;16.70;99.90
18153;DHT22;9202;51.578;7.734;2022-09-24T11:21:44;16.80;99.90
18153;DHT22;9202;51.578;7.734;2022-09-24T11:23:53;16.80;99.90
18153;DHT22;9202;51.578;7.734;2022-09-24T11:25:58;16.80;99.90
18153;DHT22;9202;51.578;7.734;2022-09-24T11:28:22;16.90;99.90
18153;DHT22;9202;51.578;7.734;2022-09-24T11:30:27;16.90;99.90
18153;DHT22;9202;51.578;7.734;2022-09-24T11:32:32;16.90;99.90
18153;DHT22;9202;51.578;7.734;2022-09-24T11:34:42;16.90;99.90
18153;DHT22;9202;51.578;7.734;2022-09-24T11:36:49;16.90;99.90
18153;DHT22;9202;51.578;7.734;2022-09-24T11:39:01;16.90;99.90
18153;DHT22;9202;51.578;7.734;2022-09-24T11:43:30;17.00;99.90
18153;DHT22;9202;51.578;7.734;2022-09-24T11:45:40;17.10;99.90
18153;DHT22;9202;51.578;7.734;2022-09-24T11:47:50;17.20;99.90
18153;DHT22;9202;51.578;7.734;2022-09-24T11:49:56;17.10;99.90
18153;DHT22;9202;51.578;7.734;2022-09-24T11:52:01;17.10;99.90
18153;DHT22;9202;51.578;7.734;2022-09-24T11:54:06;17.10;99.90
18153;DHT22;9202;51.578;7.734;2022-09-24T11:56:09;17.10;99.90
18153;DHT22;9202;51.578;7.734;2022-09-24T11:58:15;17.10;99.90
18153;DHT22;9202;51.578;7.734;2022-09-24T12:00:19;17.30;99.90
18153;DHT22;9202;51.578;7.734;2022-09-24T12:02:22;17.20;99.90
18153;DHT22;9202;51.578;7.734;2022-09-24T12:04:27;17.20;99.90
18153;DHT22;9202;51.578;7.734;2022-09-24T12:06:32;17.10;99.90
18153;DHT22;9202;51.578;7.734;2022-09-24T12:08:37;17.10;99.90
18153;DHT22;9202;51.578;7.734;2022-09-24T12:10:42;17.10;99.90
18153;DHT22;9202;51.578;7.734;2022-09-24T12:12:46;17.10;99.90
18153;DHT22;9202;51.578;7.734;2022-09-24T12:14:52;16.90;99.90
18153;DHT22;9202;51.578;7.734;2022-09-24T12:16:57;17.00;99.90
18153;DHT22;9202;51.578;7.734;2022-09-24T12:19:02;17.00;99.90
18153;DHT22;9202;51.578;7.734;2022-09-24T12:21:06;17.10;99.90
18153;DHT22;9202;51.578;7.734;2022-09-24T12:23:10;17.00;99.90
18153;DHT22;9202;51.578;7.734;2022-09-24T12:25:13;17.00;99.90
18153;DHT22;9202;51.578;7.734;2022-09-24T12:27:19;16.90;99.90
18153;DHT22;9202;51.578;7.734;2022-09-24T12:29:34;16.80;99.90
18153;DHT22;9202;51.578;7.734;2022-09-24T12:31:56;16.80;99.90
18153;DHT22;9202;51.578;7.734;2022-09-24T12:34:18;16.70;99.90
18153;DHT22;9202;51.578;7.734;2022-09-24T12:36:22;16.80;99.90
18153;DHT22;9202;51.578;7.734;2022-09-24T12:38:28;16.80;99.90
18153;DHT22;9202;51.578;7.734;2022-09-24T12:40:38;16.80;99.90
18153;DHT22;9202;51.578;7.734;2022-09-24T12:42:41;16.80;99.90
18153;DHT22;9202;51.578;7.734;2022-09-24T12:44:44;16.80;99.90
18153;DHT22;9202;51.578;7.734;2022-09-24T12:46:49;16.80;99.90
18153;DHT22;9202;51.578;7.734;2022-09-24T12:48:54;16.80;99.90
18153;DHT22;9202;51.578;7.734;2022-09-24T12:50:57;16.80;99.90
18153;DHT22;9202;51.578;7.734;2022-09-24T12:53:00;16.70;99.90
18153;DHT22;9202;51.578;7.734;2022-09-24T12:55:04;16.80;99.90
18153;DHT22;9202;51.578;7.734;2022-09-24T12:57:08;16.80;99.90
18153;DHT22;9202;51.578;7.734;2022-09-24T12:59:23;16.60;99.90
18153;DHT22;9202;51.578;7.734;2022-09-24T13:01:27;16.50;99.90
18153;DHT22;9202;51.578;7.734;2022-09-24T13:03:31;16.60;99.90
18153;DHT22;9202;51.578;7.734;2022-09-24T13:05:45;16.70;99.90
18153;DHT22;9202;51.578;7.734;2022-09-24T13:07:54;16.70;99.90
18153;DHT22;9202;51.578;7.734;2022-09-24T13:10:08;16.70;99.90
18153;DHT22;9202;51.578;7.734;2022-09-24T13:12:17;16.60;99.90
18153;DHT22;9202;51.578;7.734;2022-09-24T13:14:17;16.60;99.90
18153;DHT22;9202;51.578;7.734;2022-09-24T13:16:22;16.60;99.90
18153;DHT22;9202;51.578;7.734;2022-09-24T13:18:24;16.60;99.90
18153;DHT22;9202;51.578;7.734;2022-09-24T13:20:27;16.50;99.90
18153;DHT22;9202;51.578;7.734;2022-09-24T13:22:31;16.40;99.90
18153;DHT22;9202;51.578;7.734;2022-09-24T13:24:44;16.30;99.90
18153;DHT22;9202;51.578;7.734;2022-09-24T13:26:47;16.20;99.90
18153;DHT22;9202;51.578;7.734;2022-09-24T13:28:51;16.10;99.90
18153;DHT22;9202;51.578;7.734;2022-09-24T13:30:56;16.10;99.90
18153;DHT22;9202;51.578;7.734;2022-09-24T13:33:01;16.10;99.90
18153;DHT22;9202;51.578;7.734;2022-09-24T13:35:05;16.00;99.90
18153;DHT22;9202;51.578;7.734;2022-09-24T13:37:10;16.00;99.90